Time;durP1;ratioP1;P1;durP2;ratioP2;P2;SDS_P1;SDS_P2;PMS_P1;PMS_P2;Temp;Humidity;BMP_temperature;BMP_pressure;BME280_temperature;BME280_humidity;BME280_pressure;Samples;Min_cycle;Max_cycle;Signal;HPM_P1;HPM_P2
2024/03/15 00:00:24;;;;;;;13.55;12.15;;;10.20;99.90;;;;;;5058852;28;20202;-74
2024/03/15 00:02:51;;;;;;;16.63;14.05;;;10.20;99.90;;;;;;5068816;28;20252;-73
2024/03/15 00:05:21;;;;;;;14.73;13.10;;;10.20;99.90;;;;;;5040190;28;20290;-74
2024/03/15 00:07:48;;;;;;;17.25;15.05;;;10.20;99.90;;;;;;5058805;28;20264;-73
2024/03/15 00:10:15;;;;;;;18.83;16.67;;;10.10;99.90;;;;;;5043315;28;20675;-73
2024/03/15 00:12:43;;;;;;;18.42;15.95;;;10.10;99.90;;;;;;5038857;28;20258;-73
2024/03/15 00:15:10;;;;;;;17.00;15.23;;;10.10;99.90;;;;;;5039431;28;20202;-74
2024/03/15 00:17:37;;;;;;;17.75;15.35;;;10.00;99.90;;;;;;5052238;28;20217;-74
2024/03/15 00:20:07;;;;;;;17.27;15.43;;;10.00;99.90;;;;;;5079626;28;20225;-73
2024/03/15 00:22:36;;;;;;;18.52;14.65;;;10.00;99.90;;;;;;5060162;28;20249;-73
2024/03/15 00:25:04;;;;;;;16.60;14.90;;;10.00;99.90;;;;;;5062284;28;20582;-73
2024/03/15 00:27:31;;;;;;;15.38;13.38;;;10.00;99.90;;;;;;5067833;28;20250;-73
2024/03/15 00:29:58;;;;;;;16.65;14.95;;;10.00;99.90;;;;;;5058218;28;20279;-73
2024/03/15 00:32:27;;;;;;;16.30;14.60;;;10.00;99.90;;;;;;5036313;28;20290;-74
2024/03/15 00:34:54;;;;;;;15.98;14.23;;;9.90;99.90;;;;;;5054850;28;20667;-73
2024/03/15 00:37:22;;;;;;;16.52;14.57;;;9.90;99.90;;;;;;5042480;28;20219;-73
2024/03/15 00:39:49;;;;;;;19.42;15.88;;;9.90;99.90;;;;;;5045069;28;20255;-74
2024/03/15 00:42:16;;;;;;;15.85;14.00;;;9.90;99.90;;;;;;5043270;28;20228;-73
2024/03/15 00:44:43;;;;;;;15.32;13.70;;;9.90;99.90;;;;;;5057737;28;20226;-73
2024/03/15 00:47:12;;;;;;;16.23;14.52;;;9.80;99.90;;;;;;5057644;28;20221;-73
2024/03/15 00:49:40;;;;;;;17.10;15.15;;;9.80;99.90;;;;;;5073374;28;20197;-73
2024/03/15 00:52:07;;;;;;;16.70;14.90;;;9.80;99.90;;;;;;5073726;28;20233;-74
2024/03/15 00:54:35;;;;;;;16.75;14.27;;;9.80;99.90;;;;;;5060311;28;20309;-74
2024/03/15 00:57:05;;;;;;;17.67;14.80;;;9.80;99.90;;;;;;5055838;28;20218;-73
2024/03/15 00:59:32;;;;;;;16.88;14.77;;;9.80;99.90;;;;;;5059085;28;20206;-73
2024/03/15 01:01:59;;;;;;;15.70;13.98;;;9.70;99.90;;;;;;5054128;28;20750;-73
2024/03/15 01:04:28;;;;;;;17.50;15.45;;;9.70;99.90;;;;;;5050608;28;20233;-73
2024/03/15 01:06:56;;;;;;;16.23;14.52;;;9.60;99.90;;;;;;5041857;28;20225;-73
2024/03/15 01:09:24;;;;;;;17.30;14.75;;;9.60;99.90;;;;;;5059048;28;20203;-74
2024/03/15 01:11:51;;;;;;;15.38;13.77;;;9.60;99.90;;;;;;5056410;28;20680;-73
2024/03/15 01:14:19;;;;;;;16.15;14.05;;;9.60;99.90;;;;;;5055539;28;20221;-74
2024/03/15 01:16:47;;;;;;;15.02;13.48;;;9.50;99.90;;;;;;5072876;28;20701;-73
2024/03/15 01:19:14;;;;;;;15.15;13.68;;;9.50;99.90;;;;;;5056280;28;20692;-73
2024/03/15 01:21:42;;;;;;;15.25;13.43;;;9.50;99.90;;;;;;5038135;28;20230;-72
2024/03/15 01:24:12;;;;;;;13.45;12.05;;;9.40;99.90;;;;;;5055404;28;21029;-73
2024/03/15 01:26:40;;;;;;;14.70;12.68;;;9.40;99.90;;;;;;5040751;28;20242;-72
2024/03/15 01:29:09;;;;;;;12.02;10.82;;;9.40;99.90;;;;;;5074918;28;20227;-72
2024/03/15 01:31:36;;;;;;;13.05;11.30;;;9.40;99.90;;;;;;5059927;28;20218;-72
2024/03/15 01:34:03;;;;;;;13.25;11.95;;;9.40;99.90;;;;;;5058979;28;20245;-72
2024/03/15 01:36:30;;;;;;;14.38;12.82;;;9.40;99.90;;;;;;5059416;28;20221;-72
2024/03/15 01:38:58;;;;;;;15.65;12.93;;;9.40;99.90;;;;;;5061971;28;20213;-72
2024/03/15 01:41:25;;;;;;;14.77;13.15;;;9.40;99.90;;;;;;5064310;28;20679;-72
2024/03/15 01:43:53;;;;;;;13.90;12.50;;;9.30;99.90;;;;;;5060192;28;20220;-72
2024/03/15 01:46:21;;;;;;;15.10;13.00;;;9.30;99.90;;;;;;5062429;28;20225;-72
2024/03/15 01:48:48;;;;;;;15.45;13.85;;;9.30;99.90;;;;;;5045312;28;20312;-72
2024/03/15 01:51:17;;;;;;;14.85;13.00;;;9.20;99.90;;;;;;5061433;28;20201;-71
2024/03/15 01:53:45;;;;;;;15.48;13.32;;;9.20;99.90;;;;;;5076176;28;20213;-71
2024/03/15 01:56:12;;;;;;;17.10;15.30;;;9.20;99.90;;;;;;5047096;28;20571;-73
2024/03/15 01:58:40;;;;;;;15.30;13.32;;;9.10;99.90;;;;;;5064165;28;20214;-72
2024/03/15 02:01:07;;;;;;;14.77;13.27;;;9.10;99.90;;;;;;5056958;28;21031;-72
2024/03/15 02:03:34;;;;;;;13.40;12.00;;;9.10;99.90;;;;;;5076893;28;20282;-72
2024/03/15 02:06:01;;;;;;;14.10;12.25;;;9.00;99.90;;;;;;5075755;28;20220;-73
2024/03/15 02:08:29;;;;;;;12.82;11.43;;;9.00;99.90;;;;;;5059163;28;20245;-72
2024/03/15 02:10:56;;;;;;;14.60;13.07;;;9.10;99.90;;;;;;5074650;28;20193;-73
2024/03/15 02:13:23;;;;;;;13.38;11.80;;;9.00;99.90;;;;;;5060566;28;20241;-72
2024/03/15 02:15:51;;;;;;;12.15;10.95;;;9.00;99.90;;;;;;5074996;28;20639;-72
2024/03/15 02:18:18;;;;;;;14.50;13.00;;;9.00;99.90;;;;;;5066274;28;20227;-73
2024/03/15 02:20:46;;;;;;;13.70;12.30;;;9.00;99.90;;;;;;5058447;28;20237;-73
2024/03/15 02:23:13;;;;;;;14.77;12.77;;;9.00;99.90;;;;;;5064893;28;20719;-73
2024/03/15 02:25:42;;;;;;;12.57;11.25;;;9.00;99.90;;;;;;5041885;28;20225;-72
2024/03/15 02:28:10;;;;;;;13.00;11.70;;;9.00;99.90;;;;;;5065305;28;20249;-72
2024/03/15 02:30:37;;;;;;;14.75;13.25;;;9.00;99.90;;;;;;5045172;28;20304;-72
2024/03/15 02:33:04;;;;;;;13.93;12.40;;;8.90;99.90;;;;;;5057935;28;20218;-72
2024/03/15 02:35:32;;;;;;;13.77;12.30;;;8.90;99.90;;;;;;5061868;28;20275;-72
2024/03/15 02:38:00;;;;;;;12.95;11.65;;;8.90;99.90;;;;;;5053869;28;20255;-72
2024/03/15 02:40:28;;;;;;;15.88;14.07;;;8.90;99.90;;;;;;5061551;28;20264;-72
2024/03/15 02:42:57;;;;;;;16.65;14.90;;;9.00;99.90;;;;;;5050976;28;20226;-72
2024/03/15 02:45:25;;;;;;;18.52;16.58;;;8.90;99.90;;;;;;5073780;28;20661;-72
2024/03/15 02:47:52;;;;;;;16.92;15.13;;;8.90;99.90;;;;;;5049592;28;20222;-72
2024/03/15 02:50:20;;;;;;;16.20;14.50;;;8.90;99.90;;;;;;5075405;28;20234;-72
2024/03/15 02:52:49;;;;;;;19.92;16.50;;;8.80;99.90;;;;;;5076885;28;20226;-72
2024/03/15 02:55:16;;;;;;;14.50;13.00;;;8.80;99.90;;;;;;5073800;28;20207;-73
2024/03/15 02:57:43;;;;;;;14.95;13.27;;;8.80;99.90;;;;;;5043022;28;20229;-73
2024/03/15 03:00:13;;;;;;;14.90;13.18;;;8.80;99.90;;;;;;5059551;28;20207;-72
2024/03/15 03:02:41;;;;;;;14.77;13.20;;;8.80;99.90;;;;;;5057540;28;20240;-73
2024/03/15 03:05:08;;;;;;;13.32;11.82;;;8.70;99.90;;;;;;5060280;28;20680;-73
2024/03/15 03:07:36;;;;;;;14.00;12.50;;;8.70;99.90;;;;;;5060127;28;20644;-73
2024/03/15 03:10:05;;;;;;;13.85;12.23;;;8.60;99.90;;;;;;5061753;28;20719;-73
2024/03/15 03:12:33;;;;;;;13.38;11.98;;;8.60;99.90;;;;;;5076656;28;20302;-73
2024/03/15 03:15:00;;;;;;;11.85;10.65;;;8.60;99.90;;;;;;5061983;28;20297;-73
2024/03/15 03:17:27;;;;;;;13.02;11.30;;;8.60;99.90;;;;;;5060347;28;21214;-73
2024/03/15 03:19:55;;;;;;;13.05;11.70;;;8.60;99.90;;;;;;5060627;28;20876;-73
2024/03/15 03:22:22;;;;;;;11.02;10.02;;;8.60;99.90;;;;;;5060843;28;20294;-73
2024/03/15 03:24:49;;;;;;;11.75;10.57;;;8.60;99.90;;;;;;5060067;28;20299;-73
2024/03/15 03:27:16;;;;;;;11.63;10.05;;;8.60;99.90;;;;;;5072616;28;20230;-72
2024/03/15 03:29:43;;;;;;;12.27;10.98;;;8.60;99.90;;;;;;5044503;28;20585;-72
2024/03/15 03:32:10;;;;;;;13.30;11.85;;;8.60;99.90;;;;;;5073345;28;20249;-72
2024/03/15 03:34:38;;;;;;;13.85;11.68;;;8.60;99.90;;;;;;5044050;28;20285;-73
2024/03/15 03:37:05;;;;;;;13.52;11.95;;;8.50;99.90;;;;;;5053907;28;20303;-72
2024/03/15 03:39:32;;;;;;;13.90;12.40;;;8.50;99.90;;;;;;5057713;28;20790;-72
2024/03/15 03:42:02;;;;;;;12.70;11.40;;;8.50;99.90;;;;;;5058511;28;20406;-73
2024/03/15 03:44:29;;;;;;;13.25;11.23;;;8.50;99.90;;;;;;5046929;28;20206;-72
2024/03/15 03:46:58;;;;;;;12.32;10.85;;;8.50;99.90;;;;;;5044964;28;20253;-72
2024/03/15 03:49:25;;;;;;;12.20;10.90;;;8.50;99.90;;;;;;5051917;28;20667;-71
2024/03/15 03:51:52;;;;;;;13.90;11.70;;;8.40;99.90;;;;;;5046557;28;20214;-71
2024/03/15 03:54:20;;;;;;;12.60;11.10;;;8.40;99.90;;;;;;5057513;28;20241;-71
2024/03/15 03:56:47;;;;;;;12.77;11.48;;;8.40;99.90;;;;;;5061689;28;20249;-71
2024/03/15 03:59:15;;;;;;;13.80;12.30;;;8.40;99.90;;;;;;5059791;28;20224;-72
2024/03/15 04:01:43;;;;;;;12.20;10.90;;;8.40;99.90;;;;;;5057584;28;20241;-72
2024/03/15 04:04:11;;;;;;;13.27;11.90;;;8.40;99.90;;;;;;5081069;28;20294;-71
2024/03/15 04:06:38;;;;;;;14.57;12.82;;;8.40;99.90;;;;;;5060350;28;20316;-72
2024/03/15 04:09:04;;;;;;;12.95;11.65;;;8.40;99.90;;;;;;5057068;28;20267;-71
2024/03/15 04:11:31;;;;;;;13.52;11.77;;;8.40;99.90;;;;;;5077232;28;20217;-72
2024/03/15 04:13:58;;;;;;;13.85;12.48;;;8.40;99.90;;;;;;5061964;28;20253;-72
2024/03/15 04:16:25;;;;;;;12.82;11.50;;;8.40;99.90;;;;;;5064027;28;20237;-72
2024/03/15 04:18:53;;;;;;;13.30;10.88;;;8.40;99.90;;;;;;5052787;28;20311;-72
2024/03/15 04:21:21;;;;;;;12.18;10.88;;;8.40;99.90;;;;;;5054410;28;20229;-71
2024/03/15 04:23:49;;;;;;;13.95;11.75;;;8.40;99.90;;;;;;5037627;28;20228;-72
2024/03/15 04:26:16;;;;;;;16.67;14.38;;;8.30;99.90;;;;;;5029126;28;20215;-72
2024/03/15 04:28:43;;;;;;;13.82;12.48;;;8.30;99.90;;;;;;5058234;28;20336;-72
2024/03/15 04:31:10;;;;;;;14.68;13.27;;;8.30;99.90;;;;;;5040439;28;20206;-72
2024/03/15 04:33:38;;;;;;;13.13;11.60;;;8.20;99.90;;;;;;5060243;28;20222;-72
2024/03/15 04:36:06;;;;;;;13.68;12.27;;;8.20;99.90;;;;;;5062218;28;20317;-72
2024/03/15 04:38:33;;;;;;;13.93;12.50;;;8.20;99.90;;;;;;5055011;28;20721;-72
2024/03/15 04:41:09;;;;;;;16.13;12.48;;;8.20;99.90;;;;;;5056460;28;20232;-72
2024/03/15 04:43:37;;;;;;;12.43;11.13;;;8.20;99.90;;;;;;5073137;28;20297;-72
2024/03/15 04:46:04;;;;;;;13.95;12.48;;;8.10;99.90;;;;;;5060320;28;20218;-72
2024/03/15 04:48:32;;;;;;;12.77;11.40;;;8.10;99.90;;;;;;5044404;28;20245;-72
2024/03/15 04:51:00;;;;;;;13.07;11.40;;;8.10;99.90;;;;;;5069554;28;20200;-72
2024/03/15 04:53:28;;;;;;;14.02;12.40;;;8.00;99.90;;;;;;5077024;28;21392;-72
2024/03/15 04:55:55;;;;;;;14.50;12.43;;;8.00;99.90;;;;;;5079552;28;20228;-72
2024/03/15 04:58:23;;;;;;;13.45;11.73;;;7.90;99.90;;;;;;5079492;28;20306;-72
2024/03/15 05:00:51;;;;;;;14.82;13.15;;;7.90;99.90;;;;;;5065418;28;20632;-72
2024/03/15 05:03:18;;;;;;;13.23;11.88;;;7.90;99.90;;;;;;5066553;28;20237;-72
2024/03/15 05:05:46;;;;;;;12.70;11.40;;;7.90;99.90;;;;;;5068300;28;20881;-72
2024/03/15 05:08:13;;;;;;;12.43;11.23;;;7.90;99.90;;;;;;5055972;28;20242;-72
2024/03/15 05:10:40;;;;;;;10.95;9.85;;;7.90;99.90;;;;;;5063231;28;20800;-72
2024/03/15 05:13:07;;;;;;;11.40;10.30;;;7.90;99.90;;;;;;5059756;28;20250;-72
2024/03/15 05:15:34;;;;;;;10.43;9.35;;;7.90;99.90;;;;;;5050281;28;20228;-72
2024/03/15 05:18:01;;;;;;;10.52;9.52;;;7.90;99.90;;;;;;5058415;28;20230;-72
2024/03/15 05:20:29;;;;;;;10.80;9.70;;;7.90;99.90;;;;;;5079171;28;20296;-71
2024/03/15 05:22:56;;;;;;;11.48;10.02;;;8.00;99.90;;;;;;5052709;28;20275;-71
2024/03/15 05:25:23;;;;;;;11.73;10.43;;;8.00;99.90;;;;;;5075390;28;20225;-72
2024/03/15 05:27:51;;;;;;;11.60;10.43;;;8.00;99.90;;;;;;5062783;28;20279;-71
2024/03/15 05:30:18;;;;;;;11.35;10.13;;;8.00;99.90;;;;;;5064466;28;20229;-72
2024/03/15 05:32:45;;;;;;;11.10;10.00;;;7.90;99.90;;;;;;5065464;28;20236;-72
2024/03/15 05:35:18;;;;;;;11.57;10.20;;;7.90;99.90;;;;;;5058371;28;20278;-72
2024/03/15 05:37:45;;;;;;;10.85;9.77;;;7.90;99.90;;;;;;5064102;28;20794;-72
2024/03/15 05:40:13;;;;;;;12.95;10.45;;;7.90;99.90;;;;;;5061830;28;20225;-71
2024/03/15 05:42:41;;;;;;;10.43;9.35;;;7.90;99.90;;;;;;5063135;28;20213;-71
2024/03/15 05:45:08;;;;;;;10.68;9.63;;;7.90;99.90;;;;;;5064756;28;20208;-71
2024/03/15 05:47:36;;;;;;;14.25;12.10;;;7.80;99.90;;;;;;5059773;28;20257;-72
2024/03/15 05:50:04;;;;;;;13.07;11.77;;;7.80;99.90;;;;;;5063573;28;20695;-72
2024/03/15 05:52:32;;;;;;;11.65;10.45;;;7.70;99.90;;;;;;5057961;28;20707;-72
2024/03/15 05:54:59;;;;;;;11.93;10.73;;;7.70;99.90;;;;;;5077445;28;20201;-72
2024/03/15 05:57:28;;;;;;;11.45;9.68;;;7.60;99.90;;;;;;5057332;28;20221;-72
2024/03/15 05:59:55;;;;;;;11.02;9.93;;;7.60;99.90;;;;;;5080950;28;20978;-72
2024/03/15 06:02:22;;;;;;;11.07;9.98;;;7.60;99.90;;;;;;5073274;28;20269;-72
2024/03/15 06:04:50;;;;;;;10.88;9.77;;;7.80;99.90;;;;;;5060858;28;20663;-72
2024/03/15 06:07:17;;;;;;;10.52;9.43;;;7.80;99.90;;;;;;5060811;28;20253;-72
2024/03/15 06:09:44;;;;;;;11.02;9.90;;;7.80;99.90;;;;;;5045607;28;20293;-72
2024/03/15 06:12:11;;;;;;;9.90;8.90;;;7.80;99.90;;;;;;5039108;28;20249;-72
2024/03/15 06:14:39;;;;;;;11.60;10.40;;;7.80;99.90;;;;;;5059296;28;20229;-72
2024/03/15 06:17:07;;;;;;;10.85;9.75;;;7.90;99.90;;;;;;5042749;28;20222;-68
2024/03/15 06:19:34;;;;;;;11.65;10.45;;;7.90;99.90;;;;;;5063028;28;20272;-68
2024/03/15 06:22:01;;;;;;;12.85;10.70;;;7.90;99.90;;;;;;5051913;28;20242;-71
2024/03/15 06:24:28;;;;;;;11.55;10.35;;;8.00;99.90;;;;;;5080285;28;20233;-72
2024/03/15 06:26:56;;;;;;;10.77;9.65;;;8.10;99.90;;;;;;5076640;28;20230;-73
2024/03/15 06:29:31;;;;;;;10.73;9.73;;;8.20;99.90;;;;;;5077734;28;21161;-72
2024/03/15 06:31:59;;;;;;;9.65;8.65;;;8.30;99.90;;;;;;5063943;28;20306;-72
2024/03/15 06:34:31;;;;;;;11.07;10.00;;;8.40;99.90;;;;;;5076665;28;20808;-72
2024/03/15 06:36:59;;;;;;;12.60;9.18;;;8.50;99.90;;;;;;5075076;28;20233;-72
2024/03/15 06:39:50;;;;;;;10.23;8.63;;;8.60;99.90;;;;;;5063759;28;20221;-72
2024/03/15 06:42:23;;;;;;;10.43;9.32;;;8.70;99.90;;;;;;5063654;28;20217;-72
2024/03/15 06:45:02;;;;;;;9.20;8.30;;;9.00;99.90;;;;;;5079365;28;20202;-73
2024/03/15 06:47:31;;;;;;;9.18;8.27;;;9.20;99.90;;;;;;5078478;28;20230;-73
2024/03/15 06:50:20;;;;;;;9.63;8.63;;;9.40;99.90;;;;;;5059221;28;20254;-73
2024/03/15 06:52:47;;;;;;;9.02;8.10;;;9.70;99.90;;;;;;5062015;28;20347;-73
2024/03/15 06:55:16;;;;;;;9.32;8.43;;;9.90;99.90;;;;;;5062740;28;20190;-72
2024/03/15 06:57:45;;;;;;;9.07;7.95;;;10.10;99.90;;;;;;5056989;28;20226;-72
2024/03/15 07:00:14;;;;;;;8.88;8.05;;;10.20;99.90;;;;;;5041026;28;20248;-73
2024/03/15 07:02:42;;;;;;;9.40;8.35;;;10.50;99.90;;;;;;5053416;28;20221;-72
2024/03/15 07:05:11;;;;;;;8.00;7.20;;;10.80;99.90;;;;;;5052241;28;20201;-72
2024/03/15 07:07:38;;;;;;;7.93;7.22;;;11.00;99.90;;;;;;5053386;28;20226;-72
2024/03/15 07:10:06;;;;;;;8.85;7.80;;;11.40;99.90;;;;;;5076330;28;20198;-72
2024/03/15 07:12:34;;;;;;;8.57;7.68;;;11.80;99.90;;;;;;5059368;28;20293;-72
2024/03/15 07:15:04;;;;;;;8.75;7.85;;;12.10;99.90;;;;;;5059238;28;20205;-73
2024/03/15 07:17:33;;;;;;;11.00;8.05;;;12.30;99.90;;;;;;5058049;28;20874;-73
2024/03/15 07:20:01;;;;;;;7.68;6.97;;;12.50;99.90;;;;;;5057049;28;20210;-72
2024/03/15 07:22:28;;;;;;;7.95;7.15;;;12.60;99.90;;;;;;5038525;28;63135;-72
2024/03/15 07:24:58;;;;;;;8.20;5.85;;;12.50;99.90;;;;;;5036777;28;20207;-72
2024/03/15 07:27:25;;;;;;;7.20;6.50;;;12.40;99.90;;;;;;5055053;28;20222;-72
2024/03/15 07:32:10;;;;;;;6.40;5.80;;;12.50;99.90;;;;;;5100670;27;20689;-72
2024/03/15 07:34:37;;;;;;;6.28;5.68;;;12.90;99.90;;;;;;5039152;28;20228;-72
2024/03/15 07:37:04;;;;;;;6.82;6.22;;;13.20;99.90;;;;;;5058734;28;20773;-72
2024/03/15 07:39:32;;;;;;;6.20;5.60;;;13.40;99.90;;;;;;5052471;28;20237;-73
2024/03/15 07:42:00;;;;;;;5.80;5.05;;;13.70;99.90;;;;;;5059617;28;20214;-72
2024/03/15 07:44:27;;;;;;;5.65;5.05;;;13.70;99.90;;;;;;5053331;28;20228;-72
2024/03/15 07:51:56;;;;;;;5.28;4.80;;;13.70;99.90;;;;;;5059182;27;21385;-72
2024/03/15 07:54:23;;;;;;;6.32;5.78;;;14.00;99.90;;;;;;5064693;28;68317;-73
2024/03/15 07:56:52;;;;;;;5.82;5.30;;;13.90;99.90;;;;;;5037932;28;20226;-73
2024/03/15 08:05:40;;;;;;;5.47;4.97;;;14.00;99.90;;;;;;5048380;27;20541;-74
2024/03/15 08:08:07;;;;;;;7.25;4.95;;;14.90;99.90;;;;;;5040097;28;20316;-73
2024/03/15 08:10:33;;;;;;;8.30;4.63;;;14.80;99.90;;;;;;5036657;28;20933;-72
2024/03/15 08:13:01;;;;;;;5.40;4.90;;;15.00;99.90;;;;;;5053249;28;20214;-73
2024/03/15 08:15:32;;;;;;;6.53;4.65;;;15.30;99.90;;;;;;5024968;28;20229;-73
2024/03/15 08:17:59;;;;;;;4.80;4.40;;;15.30;99.90;;;;;;5056975;28;20213;-73
2024/03/15 08:20:27;;;;;;;5.60;5.10;;;15.50;99.90;;;;;;5062516;28;20274;-73
2024/03/15 08:22:55;;;;;;;5.03;4.53;;;15.50;99.90;;;;;;5072698;28;20219;-73
2024/03/15 08:25:23;;;;;;;6.88;4.90;;;15.60;99.90;;;;;;5054538;28;20229;-71
2024/03/15 08:27:50;;;;;;;5.72;4.90;;;15.80;99.90;;;;;;5044394;28;20218;-72
2024/03/15 08:30:17;;;;;;;6.78;4.82;;;15.70;99.90;;;;;;5060736;28;20267;-72
2024/03/15 08:32:45;;;;;;;6.80;4.70;;;15.90;99.90;;;;;;5056358;28;20228;-72
2024/03/15 08:35:16;;;;;;;5.40;4.90;;;16.00;99.90;;;;;;5061059;28;20322;-72
2024/03/15 08:37:43;;;;;;;5.30;4.47;;;16.40;99.90;;;;;;5072136;28;20217;-72
2024/03/15 08:40:12;;;;;;;4.70;4.30;;;16.70;99.90;;;;;;5060158;28;20249;-72
2024/03/15 08:42:40;;;;;;;4.53;4.10;;;16.80;99.90;;;;;;5076856;28;20244;-72
2024/03/15 08:45:08;;;;;;;5.80;4.60;;;17.10;99.90;;;;;;5057902;28;20264;-70
2024/03/15 08:47:39;;;;;;;4.90;3.83;;;17.30;99.90;;;;;;5039326;28;20307;-71
2024/03/15 08:50:11;;;;;;;5.30;4.10;;;17.20;99.90;;;;;;5037647;28;20219;-71
2024/03/15 08:52:39;;;;;;;5.55;4.22;;;17.10;99.90;;;;;;5067301;28;20287;-71
2024/03/15 08:55:09;;;;;;;4.38;3.97;;;17.30;99.90;;;;;;5074551;28;20190;-71
2024/03/15 08:57:37;;;;;;;5.43;3.72;;;17.40;99.90;;;;;;5059614;28;20648;-72
2024/03/15 09:00:11;;;;;;;5.53;4.45;;;17.30;99.90;;;;;;5074327;28;20214;-71
2024/03/15 09:02:38;;;;;;;4.85;3.95;;;17.20;99.90;;;;;;5059676;28;20224;-71
2024/03/15 09:05:08;;;;;;;4.78;4.25;;;17.10;99.90;;;;;;5058499;28;20263;-71
2024/03/15 09:07:36;;;;;;;4.60;4.20;;;17.30;99.90;;;;;;5056878;28;20232;-72
2024/03/15 09:10:07;;;;;;;5.07;4.57;;;17.40;99.90;;;;;;5076262;28;20299;-72
2024/03/15 09:12:35;;;;;;;4.53;4.13;;;17.20;99.90;;;;;;5071741;28;20237;-71
2024/03/15 09:15:02;;;;;;;5.50;4.30;;;17.20;99.90;;;;;;5073706;28;20245;-73
2024/03/15 09:17:30;;;;;;;6.53;4.13;;;17.50;99.90;;;;;;5053042;28;20226;-72
2024/03/15 09:19:57;;;;;;;4.53;4.13;;;17.60;99.90;;;;;;5058567;28;20271;-71
2024/03/15 09:22:26;;;;;;;6.68;4.57;;;17.20;99.90;;;;;;5041389;28;20223;-72
2024/03/15 09:24:53;;;;;;;6.13;4.30;;;17.10;99.90;;;;;;5038916;28;20250;-72
2024/03/15 09:27:21;;;;;;;5.70;4.20;;;17.30;99.90;;;;;;5019825;28;20288;-72
2024/03/15 09:29:50;;;;;;;6.65;4.70;;;17.20;99.90;;;;;;5021264;28;20219;-72
2024/03/15 09:32:17;;;;;;;4.90;4.07;;;17.50;99.90;;;;;;5023815;28;20772;-72
2024/03/15 09:34:48;;;;;;;5.40;4.10;;;17.60;99.90;;;;;;5042383;28;20532;-73
2024/03/15 09:37:16;;;;;;;4.68;4.15;;;17.50;99.90;;;;;;5022465;28;20815;-73
2024/03/15 09:39:44;;;;;;;4.63;3.92;;;17.40;99.90;;;;;;5038623;28;20218;-72
2024/03/15 09:42:11;;;;;;;4.57;4.15;;;17.40;99.90;;;;;;5054886;28;20371;-72
2024/03/15 09:44:38;;;;;;;5.63;4.22;;;17.30;99.90;;;;;;5023987;28;20413;-72
2024/03/15 09:47:05;;;;;;;4.50;3.70;;;16.70;99.90;;;;;;5016900;28;20317;-72
2024/03/15 09:49:33;;;;;;;4.55;3.78;;;16.30;99.90;;;;;;5004702;28;20857;-72
2024/03/15 09:52:00;;;;;;;5.50;4.00;;;16.10;99.90;;;;;;5026697;28;20364;-73
2024/03/15 09:54:28;;;;;;;4.90;4.40;;;16.20;99.90;;;;;;5037043;28;20219;-73
2024/03/15 09:56:55;;;;;;;5.63;4.65;;;16.50;99.90;;;;;;5039577;28;20827;-73
2024/03/15 09:59:23;;;;;;;5.32;4.22;;;16.70;99.90;;;;;;5042542;28;20799;-73
2024/03/15 10:01:50;;;;;;;4.57;4.18;;;16.60;99.90;;;;;;5032194;28;20324;-73
2024/03/15 10:04:17;;;;;;;5.38;4.50;;;16.60;99.90;;;;;;5021709;28;20250;-73
2024/03/15 10:06:45;;;;;;;5.07;4.50;;;16.40;99.90;;;;;;5008443;28;20789;-72
2024/03/15 10:09:12;;;;;;;5.63;4.35;;;16.30;99.90;;;;;;5019192;28;20219;-72
2024/03/15 10:11:39;;;;;;;5.40;4.90;;;16.10;99.90;;;;;;5049131;28;20975;-73
2024/03/15 10:14:08;;;;;;;5.43;4.50;;;15.90;99.90;;;;;;5057774;28;20301;-73
2024/03/15 10:16:38;;;;;;;5.20;4.18;;;15.90;99.90;;;;;;5037115;28;20336;-72
2024/03/15 10:19:05;;;;;;;4.60;4.00;;;16.10;99.90;;;;;;5037596;28;20203;-72
2024/03/15 10:21:32;;;;;;;4.20;3.80;;;16.00;99.90;;;;;;5054869;28;20395;-74
2024/03/15 10:23:59;;;;;;;4.25;3.58;;;16.10;99.90;;;;;;5042708;28;20221;-72
2024/03/15 10:26:26;;;;;;;3.65;3.15;;;16.20;99.90;;;;;;5059813;28;20262;-72
2024/03/15 10:28:54;;;;;;;4.07;3.67;;;16.20;99.90;;;;;;5056885;28;20267;-73
2024/03/15 10:31:22;;;;;;;4.25;3.85;;;16.10;99.90;;;;;;5042833;28;20214;-73
2024/03/15 10:33:49;;;;;;;4.57;3.75;;;16.00;99.90;;;;;;5054244;28;20222;-72
2024/03/15 10:36:17;;;;;;;4.53;3.65;;;16.10;99.90;;;;;;5040592;28;20245;-72
2024/03/15 10:38:44;;;;;;;4.22;3.88;;;16.10;99.90;;;;;;5051717;28;20473;-72
2024/03/15 10:41:12;;;;;;;8.57;4.03;;;15.80;99.90;;;;;;5052758;28;20392;-72
2024/03/15 10:43:40;;;;;;;3.92;3.53;;;15.70;99.90;;;;;;5020891;28;20796;-72
2024/03/15 10:46:08;;;;;;;3.97;3.60;;;15.60;99.90;;;;;;5050220;28;20699;-72
2024/03/15 10:48:35;;;;;;;4.30;3.72;;;15.60;99.90;;;;;;5042718;28;20242;-72
2024/03/15 10:51:02;;;;;;;3.90;3.55;;;15.80;99.90;;;;;;5056340;28;20295;-72
2024/03/15 10:53:29;;;;;;;5.00;4.50;;;15.90;99.90;;;;;;5057408;28;20253;-72
2024/03/15 10:55:57;;;;;;;5.00;4.50;;;15.90;99.90;;;;;;5056454;28;20249;-72
2024/03/15 10:58:25;;;;;;;5.07;4.57;;;16.10;99.90;;;;;;5058836;28;20241;-72
2024/03/15 11:00:52;;;;;;;5.00;4.50;;;16.10;99.90;;;;;;5040792;28;20198;-72
2024/03/15 11:03:25;;;;;;;5.30;4.80;;;16.00;99.90;;;;;;5036624;28;20987;-72
2024/03/15 11:05:52;;;;;;;5.65;5.13;;;15.90;99.90;;;;;;5041875;28;20283;-72
2024/03/15 11:08:19;;;;;;;6.07;4.93;;;15.70;99.90;;;;;;5018352;28;20896;-73
2024/03/15 11:10:54;;;;;;;5.55;5.05;;;15.30;99.90;;;;;;5036996;28;20228;-74
2024/03/15 11:13:23;;;;;;;6.65;4.63;;;15.30;99.90;;;;;;5029424;28;20222;-72
2024/03/15 11:15:50;;;;;;;8.55;5.53;;;15.10;99.90;;;;;;5034316;28;20215;-71
2024/03/15 11:18:18;;;;;;;8.55;5.43;;;15.10;99.90;;;;;;5033614;28;20265;-72
2024/03/15 11:20:45;;;;;;;6.68;6.07;;;15.00;99.90;;;;;;5037626;28;20218;-73
2024/03/15 11:23:13;;;;;;;7.22;6.57;;;15.00;99.90;;;;;;5055669;28;20224;-75
2024/03/15 11:25:42;;;;;;;5.57;5.05;;;14.90;99.90;;;;;;5055430;28;20861;-73
2024/03/15 11:28:09;;;;;;;8.07;5.68;;;14.90;99.90;;;;;;5056599;28;20276;-72
2024/03/15 11:30:38;;;;;;;8.40;5.85;;;15.00;99.90;;;;;;5036912;28;20234;-73
2024/03/15 11:33:07;;;;;;;6.00;5.43;;;15.10;99.90;;;;;;5059462;28;20591;-73
2024/03/15 11:35:34;;;;;;;6.57;5.60;;;15.10;99.90;;;;;;5037758;28;20263;-73
2024/03/15 11:38:02;;;;;;;7.35;5.75;;;15.20;99.90;;;;;;5056981;28;20213;-76
2024/03/15 11:40:29;;;;;;;6.75;4.78;;;15.30;99.90;;;;;;5023512;28;20659;-76
2024/03/15 11:42:57;;;;;;;6.95;6.03;;;15.30;99.90;;;;;;5035569;28;20252;-75
2024/03/15 11:45:24;;;;;;;7.03;6.20;;;15.20;99.90;;;;;;5000520;28;20235;-74
2024/03/15 11:47:53;;;;;;;6.35;5.75;;;15.30;99.90;;;;;;5028454;28;20218;-76
2024/03/15 11:50:20;;;;;;;5.93;5.32;;;15.30;99.90;;;;;;5038977;28;20250;-76
2024/03/15 11:52:47;;;;;;;6.75;5.75;;;15.60;99.90;;;;;;5036230;28;20937;-74
2024/03/15 11:55:17;;;;;;;5.18;4.72;;;15.60;99.90;;;;;;5038493;28;20287;-76
2024/03/15 11:57:44;;;;;;;5.88;5.30;;;15.70;99.90;;;;;;5051492;28;20226;-76
2024/03/15 12:00:12;;;;;;;6.65;4.97;;;15.80;99.90;;;;;;5034180;28;20264;-74
2024/03/15 12:02:39;;;;;;;6.05;5.45;;;15.80;99.90;;;;;;5027225;28;20242;-75
2024/03/15 12:05:08;;;;;;;6.75;4.90;;;15.80;99.90;;;;;;5037437;28;20251;-76
2024/03/15 12:07:36;;;;;;;4.80;4.40;;;15.70;99.90;;;;;;5045214;28;20292;-75
2024/03/15 12:10:06;;;;;;;5.82;5.20;;;15.90;99.90;;;;;;5032039;28;20220;-75
2024/03/15 12:12:33;;;;;;;6.18;5.57;;;16.00;99.90;;;;;;5029532;28;20711;-74
2024/03/15 12:15:00;;;;;;;5.45;4.95;;;15.90;99.90;;;;;;5046388;28;20824;-73
2024/03/15 12:17:27;;;;;;;7.68;6.72;;;15.90;99.90;;;;;;5031638;28;20271;-72
2024/03/15 12:19:56;;;;;;;6.05;5.45;;;15.90;99.90;;;;;;5023274;28;20352;-75
2024/03/15 12:22:25;;;;;;;7.03;5.82;;;16.00;99.90;;;;;;5047242;28;20307;-74
2024/03/15 12:24:52;;;;;;;6.93;5.85;;;16.10;99.90;;;;;;5009534;28;20226;-75
2024/03/15 12:27:20;;;;;;;7.20;6.50;;;16.50;99.90;;;;;;5026593;28;20272;-74
2024/03/15 12:29:48;;;;;;;8.88;6.68;;;16.90;99.90;;;;;;5034784;28;20664;-75
2024/03/15 12:32:15;;;;;;;13.27;6.85;;;17.30;99.90;;;;;;5035329;28;20226;-74
2024/03/15 12:34:42;;;;;;;10.38;6.20;;;17.60;99.90;;;;;;5050949;28;20265;-75
2024/03/15 12:37:12;;;;;;;6.90;5.97;;;18.00;99.90;;;;;;5054757;28;20248;-73
2024/03/15 12:39:39;;;;;;;6.30;5.70;;;18.40;99.90;;;;;;5040463;28;20206;-74
2024/03/15 12:42:08;;;;;;;6.13;5.47;;;18.70;99.90;;;;;;5058286;28;20218;-74
2024/03/15 12:44:35;;;;;;;6.68;5.47;;;19.00;99.90;;;;;;5039466;28;20882;-74
2024/03/15 12:47:03;;;;;;;7.60;5.82;;;19.10;99.90;;;;;;5041272;28;20226;-74
2024/03/15 12:49:30;;;;;;;8.30;6.47;;;19.10;99.90;;;;;;5057471;28;20222;-74
2024/03/15 12:51:57;;;;;;;6.43;5.22;;;18.90;99.90;;;;;;5061708;28;20237;-74
2024/03/15 12:54:25;;;;;;;6.78;6.18;;;18.90;99.90;;;;;;5045617;28;20219;-74
2024/03/15 12:56:52;;;;;;;7.10;6.40;;;18.90;99.90;;;;;;5063911;28;20249;-74
2024/03/15 12:59:19;;;;;;;8.00;7.30;;;18.80;99.90;;;;;;5064929;28;20818;-74